createdAt,value
2023-04-29T00:01:59.142Z,81.29
2023-04-29T00:04:30.218Z,80.97
2023-04-29T00:06:59.959Z,81.34
2023-04-29T00:09:28.266Z,82.08
2023-04-29T00:11:56.486Z,81.85
2023-04-29T00:14:24.969Z,81.93
2023-04-29T00:16:53.289Z,81.91
2023-04-29T00:19:21.771Z,82.37
2023-04-29T00:21:50.000Z,82.08
2023-04-29T00:24:19.572Z,81.94
2023-04-29T00:26:48.019Z,82.29
2023-04-29T00:29:16.316Z,81.96
2023-04-29T00:31:44.792Z,81.72
2023-04-29T00:34:13.128Z,81.97
2023-04-29T00:36:41.860Z,80.93
2023-04-29T00:39:12.006Z,80.49
2023-04-29T00:41:42.671Z,80.31
2023-04-29T00:44:12.751Z,80.79
2023-04-29T00:46:41.641Z,80.48
2023-04-29T00:49:11.181Z,79.89
2023-04-29T00:51:41.662Z,80.21
2023-04-29T00:54:12.007Z,79.88
2023-04-29T00:56:42.644Z,79.09
2023-04-29T00:59:15.348Z,79.15
2023-04-29T01:01:44.764Z,79.22
2023-04-29T01:04:14.726Z,79.36
2023-04-29T01:06:57.450Z,79.38
2023-04-29T01:09:47.382Z,79.68
2023-04-29T01:12:32.696Z,79.50
2023-04-29T01:15:12.496Z,79.43
2023-04-29T01:17:45.654Z,79.34
2023-04-29T01:20:16.572Z,79.32
2023-04-29T01:22:45.189Z,79.19
2023-04-29T01:25:14.924Z,79.38
2023-04-29T01:28:10.740Z,78.93
2023-04-29T01:30:51.254Z,78.89
2023-04-29T01:33:34.441Z,79.38
2023-04-29T01:36:17.907Z,78.45
2023-04-29T01:39:06.444Z,78.93
2023-04-29T01:41:45.754Z,79.13
2023-04-29T01:44:23.508Z,79.39
2023-04-29T01:46:54.512Z,78.67
2023-04-29T01:49:27.734Z,79.25
2023-04-29T01:51:57.216Z,79.64
2023-04-29T01:54:25.925Z,79.50
2023-04-29T01:56:56.258Z,79.57
2023-04-29T01:59:48.028Z,79.63
2023-04-29T02:02:36.757Z,79.85
2023-04-29T02:05:13.885Z,79.21
2023-04-29T02:07:47.862Z,78.50
2023-04-29T02:10:16.479Z,78.26
2023-04-29T02:12:47.981Z,79.00
2023-04-29T02:15:17.478Z,78.78
2023-04-29T02:17:46.739Z,78.81
2023-04-29T02:20:15.337Z,79.17
2023-04-29T02:22:43.512Z,79.24
2023-04-29T02:25:12.512Z,79.20
2023-04-29T02:27:40.710Z,78.43
2023-04-29T02:30:11.443Z,78.02
2023-04-29T02:32:41.655Z,78.42
2023-04-29T02:35:10.842Z,79.01
2023-04-29T02:37:39.168Z,79.71
2023-04-29T02:40:09.486Z,79.41
2023-04-29T02:42:37.872Z,79.25
2023-04-29T02:45:07.813Z,79.29
2023-04-29T02:47:37.659Z,78.92
2023-04-29T02:50:07.363Z,78.54
2023-04-29T02:52:36.163Z,78.87
2023-04-29T02:55:07.459Z,78.51
2023-04-29T02:57:35.844Z,78.56
2023-04-29T03:00:04.746Z,78.41
2023-04-29T03:02:33.165Z,79.03
2023-04-29T03:05:03.669Z,79.03
2023-04-29T03:07:31.859Z,79.62
2023-04-29T03:10:00.366Z,79.23
2023-04-29T03:12:28.779Z,78.72
2023-04-29T03:14:56.973Z,78.54
2023-04-29T03:17:25.357Z,78.42
2023-04-29T03:19:54.790Z,78.36
2023-04-29T03:22:24.656Z,78.25
2023-04-29T03:24:52.888Z,78.43
2023-04-29T03:27:22.302Z,78.33
2023-04-29T03:29:51.150Z,78.49
2023-04-29T03:32:19.498Z,78.50
2023-04-29T03:34:47.890Z,77.25
2023-04-29T03:37:36.070Z,77.23
2023-04-29T03:40:20.210Z,77.62
2023-04-29T03:42:49.218Z,77.75
2023-04-29T03:45:17.743Z,76.58
2023-04-29T03:47:49.485Z,76.88
2023-04-29T03:50:18.184Z,76.53
2023-04-29T03:52:48.180Z,75.69
2023-04-29T03:55:18.396Z,76.04
2023-04-29T03:57:46.569Z,76.31
2023-04-29T04:00:18.112Z,76.69
2023-04-29T04:02:49.451Z,76.64
2023-04-29T04:05:19.691Z,76.32
2023-04-29T04:07:53.158Z,75.73
2023-04-29T04:10:46.146Z,75.66
2023-04-29T04:13:41.238Z,76.05
2023-04-29T04:16:10.906Z,75.77
2023-04-29T04:18:39.414Z,76.04
2023-04-29T04:21:08.512Z,76.34
2023-04-29T04:23:41.255Z,76.02
2023-04-29T04:26:13.838Z,76.07
2023-04-29T04:28:51.074Z,75.71
2023-04-29T04:31:27.880Z,75.33
2023-04-29T04:33:56.684Z,74.87
2023-04-29T04:36:25.112Z,75.09
2023-04-29T04:38:55.325Z,75.64
2023-04-29T04:41:23.608Z,75.68
2023-04-29T04:43:54.068Z,75.66
2023-04-29T04:46:35.449Z,75.71
2023-04-29T04:49:20.375Z,75.20
2023-04-29T04:51:53.398Z,74.94
2023-04-29T04:54:22.973Z,74.68
2023-04-29T04:56:55.439Z,74.80
2023-04-29T04:59:23.992Z,74.72
2023-04-29T05:01:52.502Z,74.67
2023-04-29T05:04:21.013Z,74.41
2023-04-29T05:06:51.972Z,74.36
2023-04-29T05:09:23.987Z,74.26
2023-04-29T05:11:52.215Z,73.58
2023-04-29T05:14:22.982Z,73.68
2023-04-29T05:16:52.853Z,73.48
2023-04-29T05:19:21.853Z,73.91
2023-04-29T05:21:51.685Z,73.61
2023-04-29T05:24:20.370Z,73.64
2023-04-29T05:26:52.044Z,73.68
2023-04-29T05:29:22.792Z,74.32
2023-04-29T05:31:56.963Z,73.98
2023-04-29T05:34:25.599Z,74.17
2023-04-29T05:36:54.237Z,73.57
2023-04-29T05:39:22.981Z,73.62
2023-04-29T05:42:06.611Z,73.58
2023-04-29T05:44:39.715Z,73.76
2023-04-29T05:47:08.095Z,73.89
2023-04-29T05:49:40.316Z,73.57
2023-04-29T05:52:08.745Z,72.88
2023-04-29T05:54:44.474Z,72.70
2023-04-29T05:57:17.092Z,73.04
2023-04-29T05:59:45.330Z,73.70
2023-04-29T06:02:14.658Z,73.70
2023-04-29T06:04:43.889Z,73.55
2023-04-29T06:07:27.751Z,73.15
2023-04-29T06:10:00.768Z,73.39
2023-04-29T06:12:31.848Z,74.01
2023-04-29T06:15:09.575Z,73.88
2023-04-29T06:17:40.711Z,74.09
2023-04-29T06:20:13.471Z,74.79
2023-04-29T06:22:41.836Z,75.17
2023-04-29T06:25:11.331Z,75.79
2023-04-29T06:27:49.444Z,76.66
2023-04-29T06:30:19.828Z,76.84
2023-04-29T06:32:48.135Z,77.41
2023-04-29T06:35:16.878Z,77.53
2023-04-29T06:38:03.582Z,76.90
2023-04-29T06:40:46.611Z,76.92
2023-04-29T06:43:34.803Z,76.71
2023-04-29T06:46:03.146Z,76.74
2023-04-29T06:48:40.634Z,77.03
2023-04-29T06:51:09.067Z,76.25
2023-04-29T06:53:39.326Z,75.61
2023-04-29T06:56:08.946Z,75.68
2023-04-29T06:58:40.927Z,75.43
2023-04-29T07:01:09.770Z,74.52
2023-04-29T07:03:38.555Z,73.82
2023-04-29T07:06:09.825Z,73.10
2023-04-29T07:08:37.938Z,71.43
2023-04-29T07:11:14.450Z,71.02
2023-04-29T07:13:43.981Z,70.45
2023-04-29T07:16:18.223Z,70.45
2023-04-29T07:18:46.605Z,70.71
2023-04-29T07:21:14.779Z,69.76
2023-04-29T07:23:52.916Z,67.21
2023-04-29T07:26:26.093Z,67.23
2023-04-29T07:28:55.720Z,67.36
2023-04-29T07:31:25.640Z,67.86
2023-04-29T07:33:55.227Z,68.28
2023-04-29T07:36:26.273Z,67.93
2023-04-29T07:38:54.639Z,67.84
2023-04-29T07:41:22.929Z,68.74
2023-04-29T07:43:55.489Z,68.70
2023-04-29T07:46:23.752Z,69.10
2023-04-29T07:48:52.984Z,69.61
2023-04-29T07:51:21.799Z,68.72
2023-04-29T07:53:49.984Z,69.29
2023-04-29T07:56:19.223Z,68.91
2023-04-29T07:58:48.057Z,68.47
2023-04-29T08:01:18.784Z,67.61
2023-04-29T08:03:47.528Z,67.97
2023-04-29T08:06:20.859Z,65.47
2023-04-29T08:08:49.413Z,65.05
2023-04-29T08:11:20.806Z,63.54
2023-04-29T08:13:49.370Z,63.12
2023-04-29T08:16:21.695Z,62.66
2023-04-29T08:18:50.149Z,61.82
2023-04-29T08:21:21.021Z,62.12
2023-04-29T08:23:49.156Z,62.15
2023-04-29T08:26:17.666Z,62.26
2023-04-29T08:28:47.906Z,62.13
2023-04-29T08:31:21.461Z,59.20
2023-04-29T08:33:50.130Z,59.89
2023-04-29T08:36:18.474Z,57.15
2023-04-29T08:38:52.910Z,58.40
2023-04-29T08:41:25.678Z,55.80
2023-04-29T08:43:54.305Z,56.15
2023-04-29T08:46:26.760Z,55.65
2023-04-29T08:48:56.510Z,57.19
2023-04-29T08:51:24.826Z,59.09
2023-04-29T08:53:53.197Z,57.13
2023-04-29T08:56:22.172Z,55.53
2023-04-29T08:58:54.499Z,56.05
2023-04-29T09:01:25.221Z,57.47
2023-04-29T09:04:05.917Z,55.94
2023-04-29T09:06:34.494Z,55.12
2023-04-29T09:09:04.154Z,54.89
2023-04-29T09:11:33.318Z,58.04
2023-04-29T09:14:04.364Z,55.58
2023-04-29T09:16:35.520Z,55.08
2023-04-29T09:19:03.950Z,52.78
2023-04-29T09:21:33.253Z,53.95
2023-04-29T09:24:03.898Z,54.69
2023-04-29T09:26:42.550Z,53.08
2023-04-29T09:29:16.401Z,53.32
2023-04-29T09:31:47.373Z,52.05
2023-04-29T09:34:16.677Z,52.52
2023-04-29T09:36:48.512Z,52.31
2023-04-29T09:39:18.977Z,48.74
2023-04-29T09:42:03.116Z,49.36
2023-04-29T09:44:35.844Z,50.61
2023-04-29T09:47:08.735Z,49.04
2023-04-29T09:49:40.906Z,49.11
2023-04-29T09:52:11.792Z,48.14
2023-04-29T09:54:42.245Z,48.96
2023-04-29T09:57:14.889Z,49.99
2023-04-29T09:59:44.527Z,51.61
2023-04-29T10:02:18.068Z,50.65
2023-04-29T10:04:50.010Z,50.86
2023-04-29T10:07:20.184Z,49.40
2023-04-29T10:09:49.399Z,48.36
2023-04-29T10:12:19.114Z,48.38
2023-04-29T10:14:56.303Z,46.85
2023-04-29T10:17:37.579Z,47.29
2023-04-29T10:20:08.310Z,45.78
2023-04-29T10:22:47.522Z,46.57
2023-04-29T10:25:18.497Z,46.79
2023-04-29T10:27:48.953Z,47.43
2023-04-29T10:30:19.107Z,46.91
2023-04-29T10:32:52.110Z,44.91
2023-04-29T10:35:25.641Z,44.01
2023-04-29T10:37:57.221Z,43.51
2023-04-29T10:40:32.843Z,43.09
2023-04-29T10:43:01.403Z,45.25
2023-04-29T10:45:32.634Z,45.09
2023-04-29T10:48:13.732Z,44.42
2023-04-29T10:51:03.422Z,45.82
2023-04-29T10:53:33.213Z,44.56
2023-04-29T10:56:09.669Z,43.64
2023-04-29T10:58:42.779Z,44.38
2023-04-29T11:01:14.960Z,44.59
2023-04-29T11:03:58.740Z,43.78
2023-04-29T11:06:42.207Z,44.30
2023-04-29T11:09:16.358Z,45.16
2023-04-29T11:11:47.285Z,47.48
2023-04-29T11:14:16.927Z,47.31
2023-04-29T11:16:54.558Z,44.38
2023-04-29T11:19:28.620Z,44.37
2023-04-29T11:22:30.295Z,46.80
2023-04-29T11:25:00.760Z,45.81
2023-04-29T11:27:32.462Z,46.12
2023-04-29T11:30:04.042Z,46.27
2023-04-29T11:32:35.109Z,47.50
2023-04-29T11:35:12.936Z,48.08
2023-04-29T11:37:43.009Z,43.39
2023-04-29T11:40:13.283Z,45.13
2023-04-29T11:42:45.466Z,44.88
2023-04-29T11:45:14.108Z,44.64
2023-04-29T11:47:46.397Z,44.12
2023-04-29T11:50:19.701Z,43.34
2023-04-29T11:52:49.449Z,41.82
2023-04-29T11:55:17.898Z,40.82
2023-04-29T11:57:47.179Z,41.75
2023-04-29T12:00:16.871Z,43.26
2023-04-29T12:02:47.909Z,45.13
2023-04-29T12:05:19.330Z,45.41
2023-04-29T12:07:50.143Z,43.42
2023-04-29T12:10:18.617Z,43.84
2023-04-29T12:12:47.434Z,38.84
2023-04-29T12:15:16.149Z,36.56
2023-04-29T12:17:46.586Z,38.77
2023-04-29T12:20:15.208Z,38.87
2023-04-29T12:22:44.952Z,45.80
2023-04-29T12:25:13.252Z,40.30
2023-04-29T12:27:43.082Z,40.02
2023-04-29T12:30:12.677Z,40.64
2023-04-29T12:32:41.646Z,42.57
2023-04-29T12:35:17.855Z,42.21
2023-04-29T12:37:51.541Z,42.05
2023-04-29T12:40:21.213Z,42.26
2023-04-29T12:42:49.700Z,43.63
2023-04-29T12:45:32.778Z,42.81
2023-04-29T12:48:05.638Z,43.45
2023-04-29T12:50:39.583Z,43.02
2023-04-29T12:53:10.164Z,42.03
2023-04-29T12:55:40.169Z,40.90
2023-04-29T12:58:09.737Z,40.14
2023-04-29T13:00:38.424Z,40.84
2023-04-29T13:03:07.316Z,40.20
2023-04-29T13:05:35.844Z,43.06
2023-04-29T13:08:06.002Z,41.20
2023-04-29T13:10:36.437Z,42.81
2023-04-29T13:13:04.710Z,41.72
2023-04-29T13:15:34.323Z,43.22
2023-04-29T13:18:05.503Z,42.23
2023-04-29T13:20:40.452Z,38.74
2023-04-29T13:23:11.548Z,38.15
2023-04-29T13:25:41.322Z,38.58
2023-04-29T13:28:09.833Z,39.18
2023-04-29T13:30:38.582Z,41.23
2023-04-29T13:33:12.303Z,39.74
2023-04-29T13:35:42.042Z,39.12
2023-04-29T13:38:10.767Z,40.32
2023-04-29T13:40:46.097Z,40.15
2023-04-29T13:43:26.295Z,39.23
2023-04-29T13:46:01.250Z,43.02
2023-04-29T13:49:08.208Z,40.81
2023-04-29T14:02:14.807Z,39.24
2023-04-29T14:04:13.624Z,39.20
2023-04-29T14:06:43.770Z,39.27
2023-04-29T14:09:12.204Z,40.69
2023-04-29T14:11:41.986Z,37.90
2023-04-29T14:14:10.919Z,37.13
2023-04-29T14:16:39.332Z,39.39
2023-04-29T14:19:08.677Z,40.29
2023-04-29T14:21:37.128Z,40.14
2023-04-29T14:24:05.826Z,38.59
2023-04-29T14:26:34.106Z,38.99
2023-04-29T14:29:03.717Z,37.34
2023-04-29T14:31:36.272Z,39.47
2023-04-29T14:34:04.847Z,39.07
2023-04-29T14:36:33.835Z,38.05
2023-04-29T14:39:05.075Z,36.96
2023-04-29T14:41:33.370Z,38.90
2023-04-29T14:44:03.221Z,38.38
2023-04-29T14:46:33.131Z,36.48
2023-04-29T14:49:01.951Z,36.01
2023-04-29T14:51:31.152Z,37.81
2023-04-29T14:53:59.367Z,38.65
2023-04-29T14:56:27.875Z,38.63
2023-04-29T14:58:56.382Z,40.10
2023-04-29T15:01:25.990Z,41.93
2023-04-29T15:03:54.759Z,41.60
2023-04-29T15:06:23.113Z,39.97
2023-04-29T15:08:51.358Z,41.56
2023-04-29T15:11:19.570Z,42.14
2023-04-29T15:13:47.766Z,41.83
2023-04-29T15:16:16.125Z,40.50
2023-04-29T15:18:46.486Z,42.94
2023-04-29T15:21:17.158Z,41.01
2023-04-29T15:23:45.880Z,40.63
2023-04-29T15:26:14.132Z,41.24
2023-04-29T15:28:43.331Z,41.51
2023-04-29T15:31:11.869Z,39.65
2023-04-29T15:33:40.030Z,41.66
2023-04-29T15:36:10.228Z,41.12
2023-04-29T15:38:38.389Z,39.81
2023-04-29T15:41:06.897Z,37.95
2023-04-29T15:43:35.895Z,40.18
2023-04-29T15:46:04.665Z,38.19
2023-04-29T15:48:34.297Z,38.25
2023-04-29T15:51:05.225Z,37.13
2023-04-29T15:53:34.757Z,37.46
2023-04-29T15:56:03.287Z,38.05
2023-04-29T15:58:31.497Z,36.23
2023-04-29T16:00:59.972Z,37.53
2023-04-29T16:03:29.005Z,35.45
2023-04-29T16:05:57.398Z,36.49
2023-04-29T16:08:25.578Z,37.68
2023-04-29T16:10:55.162Z,37.91
2023-04-29T16:13:23.748Z,38.54
2023-04-29T16:15:52.018Z,37.95
2023-04-29T16:18:20.617Z,41.36
2023-04-29T16:20:48.884Z,40.23
2023-04-29T16:23:17.177Z,38.98
2023-04-29T16:25:45.472Z,38.83
2023-04-29T16:28:15.066Z,37.82
2023-04-29T16:30:43.794Z,38.42
2023-04-29T16:33:11.949Z,39.36
2023-04-29T16:35:40.355Z,39.60
2023-04-29T16:38:08.758Z,39.32
2023-04-29T16:40:36.921Z,39.94
2023-04-29T16:43:05.132Z,40.10
2023-04-29T16:45:34.766Z,40.18
2023-04-29T16:48:03.258Z,41.30
2023-04-29T16:50:31.891Z,41.11
2023-04-29T16:53:00.059Z,42.36
2023-04-29T16:55:28.564Z,41.04
2023-04-29T16:57:56.845Z,40.72
2023-04-29T17:00:25.312Z,42.13
2023-04-29T17:02:58.479Z,41.02
2023-04-29T17:05:27.536Z,42.07
2023-04-29T17:07:56.041Z,41.76
2023-04-29T17:10:24.210Z,42.30
2023-04-29T17:12:52.464Z,42.58
2023-04-29T17:15:20.978Z,42.18
2023-04-29T17:17:51.174Z,42.45
2023-04-29T17:20:21.681Z,42.02
2023-04-29T17:22:50.165Z,44.01
2023-04-29T17:25:18.951Z,44.12
2023-04-29T17:27:47.427Z,45.00
2023-04-29T17:30:15.731Z,44.61
2023-04-29T17:32:44.569Z,44.96
2023-04-29T17:35:12.819Z,44.98
2023-04-29T17:37:42.516Z,45.02
2023-04-29T17:40:11.662Z,45.70
2023-04-29T17:42:40.344Z,45.99
2023-04-29T17:45:10.869Z,45.97
2023-04-29T17:47:39.471Z,46.44
2023-04-29T17:50:09.096Z,46.54
2023-04-29T17:52:37.423Z,46.28
2023-04-29T17:55:08.641Z,46.73
2023-04-29T17:57:37.979Z,47.63
2023-04-29T18:00:08.630Z,47.03
2023-04-29T18:02:37.304Z,47.18
2023-04-29T18:05:06.458Z,46.80
2023-04-29T18:07:34.669Z,46.52
2023-04-29T18:10:03.479Z,46.60
2023-04-29T18:12:33.381Z,46.64
2023-04-29T18:15:02.048Z,47.57
2023-04-29T18:17:30.272Z,47.53
2023-04-29T18:19:58.472Z,47.44
2023-04-29T18:22:26.878Z,48.07
2023-04-29T18:24:55.940Z,47.91
2023-04-29T18:27:25.904Z,47.77
2023-04-29T18:29:55.694Z,47.20
2023-04-29T18:32:24.209Z,47.99
2023-04-29T18:34:52.486Z,47.44
2023-04-29T18:37:20.978Z,48.83
2023-04-29T18:39:49.259Z,48.44
2023-04-29T18:42:17.563Z,48.69
2023-04-29T18:44:48.234Z,48.90
2023-04-29T18:47:17.972Z,49.03
2023-04-29T18:49:46.199Z,49.46
2023-04-29T18:52:14.549Z,49.92
2023-04-29T18:54:42.748Z,50.69
2023-04-29T18:57:11.013Z,50.84
2023-04-29T18:59:39.430Z,50.60
2023-04-29T19:02:08.505Z,51.80
2023-04-29T19:04:38.075Z,51.63
2023-04-29T19:07:06.495Z,52.03
2023-04-29T19:09:34.755Z,52.77
2023-04-29T19:12:04.537Z,52.23
2023-04-29T19:14:34.185Z,52.37
2023-04-29T19:17:02.992Z,52.88
2023-04-29T19:19:31.307Z,52.83
2023-04-29T19:22:02.830Z,53.16
2023-04-29T19:24:31.231Z,53.37
2023-04-29T19:26:59.461Z,53.76
2023-04-29T19:29:27.661Z,54.25
2023-04-29T19:31:55.859Z,54.14
2023-04-29T19:34:24.415Z,53.95
2023-04-29T19:36:53.012Z,54.36
2023-04-29T19:39:22.564Z,54.62
2023-04-29T19:41:51.199Z,55.48
2023-04-29T19:44:19.425Z,55.18
2023-04-29T19:46:50.911Z,55.58
2023-04-29T19:49:19.309Z,56.31
2023-04-29T19:51:47.844Z,55.78
2023-04-29T19:54:16.880Z,56.06
2023-04-29T19:56:46.436Z,56.14
2023-04-29T19:59:14.823Z,56.68
2023-04-29T20:01:43.058Z,56.56
2023-04-29T20:04:12.627Z,56.60
2023-04-29T20:06:41.332Z,56.94
2023-04-29T20:09:14.451Z,56.97
2023-04-29T20:11:42.663Z,56.51
2023-04-29T20:14:12.314Z,56.80
2023-04-29T20:16:40.621Z,57.23
2023-04-29T20:19:08.925Z,57.60
2023-04-29T20:21:39.041Z,57.95
2023-04-29T20:24:09.175Z,57.91
2023-04-29T20:26:37.398Z,58.99
2023-04-29T20:29:05.650Z,59.01
2023-04-29T20:31:35.201Z,59.11
2023-04-29T20:34:03.477Z,59.82
2023-04-29T20:36:31.922Z,60.56
2023-04-29T20:39:01.134Z,60.72
2023-04-29T20:41:29.613Z,60.52
2023-04-29T20:43:58.687Z,61.04
2023-04-29T20:46:29.063Z,61.00
2023-04-29T20:48:58.663Z,60.90
2023-04-29T20:51:26.961Z,60.74
2023-04-29T20:53:55.619Z,61.51
2023-04-29T20:56:24.661Z,61.13
2023-04-29T20:58:53.108Z,60.94
2023-04-29T21:01:21.532Z,60.80
2023-04-29T21:03:49.783Z,60.28
2023-04-29T21:06:19.633Z,61.23
2023-04-29T21:08:48.208Z,61.18
2023-04-29T21:11:16.410Z,61.02
2023-04-29T21:13:49.837Z,61.16
2023-04-29T21:16:18.800Z,61.05
2023-04-29T21:18:47.558Z,61.42
2023-04-29T21:21:15.883Z,61.71
2023-04-29T21:23:45.561Z,61.27
2023-04-29T21:26:15.018Z,61.13
2023-04-29T21:28:43.945Z,61.25
2023-04-29T21:31:16.324Z,61.39
2023-04-29T21:33:45.052Z,61.83
2023-04-29T21:36:13.518Z,62.06
2023-04-29T21:38:42.668Z,61.86
2023-04-29T21:41:22.565Z,61.73
2023-04-29T21:43:51.670Z,61.72
2023-04-29T21:46:20.818Z,62.00
2023-04-29T21:48:49.066Z,61.94
2023-04-29T21:51:18.975Z,62.10
2023-04-29T21:53:47.235Z,62.42
2023-04-29T21:56:16.865Z,62.38
2023-04-29T21:58:45.862Z,62.17
2023-04-29T22:01:27.370Z,62.63
2023-04-29T22:03:59.078Z,62.15
2023-04-29T22:06:27.577Z,62.63
2023-04-29T22:08:55.809Z,62.88
2023-04-29T22:11:25.577Z,63.90
2023-04-29T22:13:54.050Z,64.13
2023-04-29T22:16:23.441Z,63.71
2023-04-29T22:18:52.116Z,63.80
2023-04-29T22:21:20.535Z,63.77
2023-04-29T22:23:49.184Z,64.49
2023-04-29T22:26:17.520Z,64.59
2023-04-29T22:28:47.255Z,64.78
2023-04-29T22:31:15.434Z,65.14
2023-04-29T22:33:43.617Z,65.48
2023-04-29T22:36:11.838Z,65.52
2023-04-29T22:38:40.121Z,66.68
2023-04-29T22:41:11.751Z,67.00
2023-04-29T22:43:40.011Z,67.05
2023-04-29T22:46:09.921Z,66.78
2023-04-29T22:48:38.181Z,67.18
2023-04-29T22:51:06.795Z,66.67
2023-04-29T22:53:34.919Z,67.60
2023-04-29T22:56:07.949Z,67.45
2023-04-29T22:58:36.173Z,67.16
2023-04-29T23:01:04.400Z,68.07
2023-04-29T23:03:33.880Z,67.67
2023-04-29T23:06:02.583Z,68.19
2023-04-29T23:08:30.936Z,68.74
2023-04-29T23:10:59.389Z,68.23
2023-04-29T23:13:27.725Z,68.32
2023-04-29T23:15:58.116Z,68.45
2023-04-29T23:18:28.064Z,67.93
2023-04-29T23:20:58.071Z,67.64
2023-04-29T23:23:26.547Z,67.61
2023-04-29T23:25:54.827Z,67.83
2023-04-29T23:28:24.759Z,68.07
2023-04-29T23:30:53.068Z,68.28
2023-04-29T23:33:21.301Z,68.03
2023-04-29T23:35:51.061Z,68.10
2023-04-29T23:38:21.367Z,68.47
2023-04-29T23:40:49.685Z,68.65
2023-04-29T23:43:19.488Z,68.55
2023-04-29T23:45:47.632Z,68.67
2023-04-29T23:48:16.708Z,69.20
2023-04-29T23:50:44.840Z,69.67
2023-04-29T23:53:13.056Z,70.41
2023-04-29T23:55:42.798Z,70.73
2023-04-29T23:58:11.225Z,70.90
